Time;durP1;ratioP1;P1;durP2;ratioP2;P2;SDS_P1;SDS_P2;PMS_P1;PMS_P2;Temp;Humidity;BMP_temperature;BMP_pressure;BME280_temperature;BME280_humidity;BME280_pressure;Samples;Min_cycle;Max_cycle;Signal;HPM_P1;HPM_P2
2021/12/11 00:01:00;;;;;;;365.60;339.37;;;5.30;99.90;;;;;;5058691;28;20259;-81
2021/12/11 00:03:31;;;;;;;363.33;337.27;;;5.30;99.90;;;;;;5080116;28;20205;-81
2021/12/11 00:06:12;;;;;;;361.83;335.43;;;5.40;99.90;;;;;;5081601;28;20213;-80
2021/12/11 00:08:40;;;;;;;359.23;333.43;;;5.40;99.90;;;;;;5058255;28;20300;-81
2021/12/11 00:11:20;;;;;;;361.03;335.23;;;5.40;99.90;;;;;;5047333;28;20186;-81
2021/12/11 00:13:46;;;;;;;358.10;332.37;;;5.50;99.90;;;;;;5060549;28;20724;-80
2021/12/11 00:16:17;;;;;;;363.53;337.50;;;5.50;99.90;;;;;;5075221;28;20219;-80
2021/12/11 00:18:43;;;;;;;361.60;335.90;;;5.50;99.90;;;;;;5060478;28;20198;-81
2021/12/11 00:21:15;;;;;;;361.07;335.00;;;5.50;99.90;;;;;;5060490;28;20267;-80
2021/12/11 00:24:00;;;;;;;362.40;336.40;;;5.50;99.90;;;;;;5061076;28;20244;-79
2021/12/11 00:26:32;;;;;;;366.00;339.63;;;5.60;99.90;;;;;;5059268;28;20185;-81
2021/12/11 00:28:58;;;;;;;366.63;340.30;;;5.60;99.90;;;;;;5063198;28;20290;-79
2021/12/11 00:31:24;;;;;;;366.00;339.43;;;5.60;99.90;;;;;;5062558;28;20190;-80
2021/12/11 00:33:51;;;;;;;364.27;337.23;;;5.60;99.90;;;;;;5032105;28;20201;-81
2021/12/11 00:36:21;;;;;;;409.23;376.80;;;5.70;99.90;;;;;;5059989;28;20577;-80
2021/12/11 00:38:50;;;;;;;368.37;340.93;;;5.70;99.90;;;;;;5057905;28;20651;-81
2021/12/11 00:41:18;;;;;;;404.27;372.47;;;5.70;99.90;;;;;;5058242;28;20541;-80
2021/12/11 00:43:49;;;;;;;404.53;373.37;;;5.70;99.90;;;;;;5059548;28;20655;-81
2021/12/11 00:46:21;;;;;;;397.10;365.53;;;5.80;99.90;;;;;;5064156;28;20181;-79
2021/12/11 00:48:47;;;;;;;400.43;369.43;;;5.80;99.90;;;;;;5060651;28;20210;-81
2021/12/11 00:51:17;;;;;;;397.90;366.50;;;5.80;99.90;;;;;;5063626;28;20188;-80
2021/12/11 00:53:58;;;;;;;394.70;363.43;;;5.80;99.90;;;;;;5058984;28;20639;-80
2021/12/11 00:56:39;;;;;;;394.87;363.50;;;5.80;99.90;;;;;;5059847;28;20541;-80
2021/12/11 00:59:09;;;;;;;390.33;359.80;;;5.90;99.90;;;;;;5079888;28;21732;-79
2021/12/11 01:01:43;;;;;;;389.50;359.07;;;5.80;99.90;;;;;;5084124;28;20734;-79
2021/12/11 01:04:21;;;;;;;381.17;352.07;;;5.90;99.90;;;;;;5064553;28;20280;-80
2021/12/11 01:07:15;;;;;;;376.93;348.07;;;5.90;99.90;;;;;;5070043;28;20208;-81
2021/12/11 01:09:48;;;;;;;377.40;348.33;;;5.90;99.90;;;;;;5063036;28;20574;-79
2021/12/11 01:12:24;;;;;;;374.23;345.57;;;5.90;99.90;;;;;;5064746;28;20220;-81
2021/12/11 01:14:59;;;;;;;372.13;343.97;;;5.90;99.90;;;;;;5076080;28;20185;-80
2021/12/11 01:17:41;;;;;;;374.47;346.27;;;5.90;99.90;;;;;;5078713;28;20178;-81
2021/12/11 01:20:20;;;;;;;366.57;338.63;;;6.00;99.90;;;;;;5066868;28;20197;-80
2021/12/11 01:22:48;;;;;;;364.93;337.70;;;6.00;99.90;;;;;;5079372;28;20201;-80
2021/12/11 01:25:24;;;;;;;364.93;338.20;;;6.00;99.90;;;;;;5044948;28;20408;-77
2021/12/11 01:27:55;;;;;;;367.20;340.20;;;6.00;99.90;;;;;;5082778;28;20264;-79
2021/12/11 01:30:35;;;;;;;366.00;339.43;;;6.00;99.90;;;;;;5062342;28;20221;-80
2021/12/11 01:33:01;;;;;;;362.40;335.93;;;5.90;99.90;;;;;;5062913;28;20196;-80
2021/12/11 01:35:27;;;;;;;366.87;339.33;;;6.00;99.90;;;;;;5066391;28;20240;-80
2021/12/11 01:38:10;;;;;;;363.33;336.43;;;6.00;99.90;;;;;;5061995;28;20338;-80
2021/12/11 01:40:37;;;;;;;364.97;338.00;;;5.90;99.90;;;;;;5066104;28;20190;-80
2021/12/11 01:43:05;;;;;;;361.00;334.37;;;5.90;99.90;;;;;;5064920;28;20281;-80
2021/12/11 01:45:33;;;;;;;361.67;335.37;;;5.80;99.90;;;;;;5061186;28;20185;-81
2021/12/11 01:47:59;;;;;;;362.77;335.90;;;5.70;99.90;;;;;;5060974;28;20718;-79
2021/12/11 01:50:36;;;;;;;364.63;338.07;;;5.70;99.90;;;;;;5065259;28;20228;-81
2021/12/11 01:53:05;;;;;;;362.67;336.33;;;5.70;99.90;;;;;;5062087;28;20585;-79
2021/12/11 01:55:39;;;;;;;367.27;340.80;;;5.60;99.90;;;;;;5066632;28;20754;-81
2021/12/11 01:58:09;;;;;;;364.60;338.30;;;5.60;99.90;;;;;;5061491;28;20185;-79
2021/12/11 02:00:46;;;;;;;365.53;339.27;;;5.50;99.90;;;;;;5061561;28;20322;-80
2021/12/11 02:03:21;;;;;;;368.17;341.83;;;5.50;99.90;;;;;;5063597;28;20180;-80
2021/12/11 02:05:48;;;;;;;362.93;336.47;;;5.40;99.90;;;;;;5072687;28;20189;-80
2021/12/11 02:08:18;;;;;;;363.40;337.07;;;5.40;99.90;;;;;;5059490;28;20186;-79
2021/12/11 02:10:55;;;;;;;355.10;328.80;;;5.40;99.90;;;;;;5067891;28;20189;-80
2021/12/11 02:13:36;;;;;;;355.70;329.87;;;5.40;99.90;;;;;;5077740;28;20177;-80
2021/12/11 02:16:06;;;;;;;359.43;333.63;;;5.50;99.90;;;;;;5075936;28;20241;-78
2021/12/11 02:18:36;;;;;;;363.13;337.00;;;5.50;99.90;;;;;;5055883;28;20193;-78
2021/12/11 02:21:10;;;;;;;360.70;334.67;;;5.60;99.90;;;;;;5072606;28;20185;-79
2021/12/11 02:23:36;;;;;;;362.87;336.23;;;5.40;99.90;;;;;;5077505;28;20561;-79
2021/12/11 02:26:11;;;;;;;359.10;332.20;;;5.40;99.90;;;;;;5056731;28;20625;-80
2021/12/11 02:28:45;;;;;;;359.67;332.80;;;5.40;99.90;;;;;;5076651;28;20209;-80
2021/12/11 02:31:44;;;;;;;360.53;333.80;;;5.30;99.90;;;;;;5073429;28;20278;-79
2021/12/11 02:34:24;;;;;;;359.90;333.80;;;5.40;99.90;;;;;;5072334;28;20221;-80
2021/12/11 02:37:03;;;;;;;356.50;330.20;;;5.40;99.90;;;;;;5071884;28;20213;-80
2021/12/11 02:39:31;;;;;;;356.70;330.77;;;5.30;99.90;;;;;;5073178;28;20190;-79
2021/12/11 02:42:09;;;;;;;355.07;329.30;;;5.30;99.90;;;;;;5074298;28;20220;-80
2021/12/11 02:45:07;;;;;;;355.87;329.77;;;5.30;99.90;;;;;;5069468;28;20210;-80
2021/12/11 02:47:40;;;;;;;358.33;332.83;;;5.30;99.90;;;;;;5090336;28;20189;-80
2021/12/11 02:50:24;;;;;;;352.63;326.83;;;5.30;99.90;;;;;;5074341;28;20560;-78
2021/12/11 02:52:59;;;;;;;353.63;327.77;;;5.30;99.90;;;;;;5079662;28;20267;-79
2021/12/11 02:55:39;;;;;;;353.47;326.63;;;5.30;99.90;;;;;;5078550;28;20203;-80
2021/12/11 02:58:19;;;;;;;351.00;325.33;;;5.30;99.90;;;;;;5072822;28;20188;-80
2021/12/11 03:00:59;;;;;;;343.60;318.97;;;5.30;99.90;;;;;;5077842;28;20225;-80
2021/12/11 03:03:32;;;;;;;342.40;317.10;;;5.30;99.90;;;;;;5073791;28;20576;-78
2021/12/11 03:06:07;;;;;;;342.80;317.90;;;5.40;99.90;;;;;;5089011;28;20188;-79
2021/12/11 03:08:34;;;;;;;342.70;318.27;;;5.40;99.90;;;;;;5074458;28;20235;-79
2021/12/11 03:11:04;;;;;;;336.90;312.93;;;5.40;99.90;;;;;;5071793;28;20178;-79
2021/12/11 03:13:31;;;;;;;335.90;311.90;;;5.50;99.90;;;;;;5076303;28;20178;-79
2021/12/11 03:15:58;;;;;;;338.07;313.97;;;5.40;99.90;;;;;;5075817;28;20185;-80
2021/12/11 03:18:23;;;;;;;337.83;313.77;;;5.40;99.90;;;;;;5078617;28;20196;-79
2021/12/11 03:20:52;;;;;;;333.93;310.70;;;5.40;99.90;;;;;;5077434;28;20242;-79
2021/12/11 03:23:18;;;;;;;334.53;311.00;;;5.40;99.90;;;;;;5073649;28;20173;-79
2021/12/11 03:25:45;;;;;;;329.60;306.70;;;5.40;99.90;;;;;;5076609;28;20205;-79
2021/12/11 03:28:13;;;;;;;333.53;310.23;;;5.40;99.90;;;;;;5045479;28;20189;-79
2021/12/11 03:30:43;;;;;;;331.77;309.07;;;5.30;99.90;;;;;;5044369;28;20209;-80
2021/12/11 03:33:16;;;;;;;325.07;302.47;;;5.30;99.90;;;;;;5082013;28;20178;-79
2021/12/11 03:35:43;;;;;;;326.23;303.90;;;5.20;99.90;;;;;;5078772;28;20205;-79
2021/12/11 03:38:10;;;;;;;326.60;304.57;;;5.20;99.90;;;;;;5076711;28;20272;-79
2021/12/11 03:40:38;;;;;;;321.37;299.33;;;5.10;99.90;;;;;;5076588;28;20241;-79
2021/12/11 03:43:07;;;;;;;317.27;296.00;;;5.10;99.90;;;;;;5061410;28;20297;-78
2021/12/11 03:45:36;;;;;;;316.13;294.40;;;5.10;99.90;;;;;;5071900;28;20193;-79
2021/12/11 03:48:08;;;;;;;309.70;289.03;;;5.10;99.90;;;;;;5076404;28;20765;-79
2021/12/11 03:50:35;;;;;;;308.70;287.70;;;5.20;99.90;;;;;;5072688;28;20205;-79
2021/12/11 03:53:00;;;;;;;304.17;283.83;;;5.20;99.90;;;;;;5077510;28;20173;-79
2021/12/11 03:55:32;;;;;;;302.03;281.80;;;5.20;99.90;;;;;;5065059;28;20247;-80
2021/12/11 03:58:00;;;;;;;301.40;281.10;;;5.30;99.90;;;;;;5075032;28;20255;-79
2021/12/11 04:00:34;;;;;;;299.87;279.93;;;5.30;99.90;;;;;;5061072;28;20230;-79
2021/12/11 04:03:03;;;;;;;292.83;273.67;;;5.30;99.90;;;;;;5074097;28;20190;-80
2021/12/11 04:05:37;;;;;;;291.90;272.90;;;5.30;99.90;;;;;;5074772;28;20205;-79
2021/12/11 04:08:05;;;;;;;292.23;273.23;;;5.30;99.90;;;;;;5074753;28;20184;-79
2021/12/11 04:10:31;;;;;;;289.50;270.73;;;5.20;99.90;;;;;;5079025;28;20206;-79
2021/12/11 04:13:00;;;;;;;289.63;270.53;;;5.20;99.90;;;;;;5046657;28;20201;-79
2021/12/11 04:15:26;;;;;;;289.90;271.27;;;5.30;99.90;;;;;;5093364;28;20197;-79
2021/12/11 04:17:54;;;;;;;285.57;267.23;;;5.30;99.90;;;;;;5065435;28;20237;-80
2021/12/11 04:20:22;;;;;;;290.10;270.90;;;5.30;99.90;;;;;;5081604;28;20208;-79
2021/12/11 04:22:48;;;;;;;286.43;268.03;;;5.30;99.90;;;;;;5065377;28;20182;-79
2021/12/11 04:25:16;;;;;;;278.90;260.93;;;5.30;99.90;;;;;;5079330;28;20927;-80
2021/12/11 04:27:42;;;;;;;277.50;259.20;;;5.30;99.90;;;;;;5074223;28;20226;-79
2021/12/11 04:30:11;;;;;;;280.47;262.13;;;5.40;99.90;;;;;;5077049;28;20209;-78
2021/12/11 04:32:38;;;;;;;276.10;257.57;;;5.30;99.90;;;;;;5088804;28;20211;-80
2021/12/11 04:35:06;;;;;;;276.73;258.70;;;5.40;99.90;;;;;;5067334;28;20639;-79
2021/12/11 04:37:33;;;;;;;268.87;251.37;;;5.30;99.90;;;;;;5076060;28;20207;-78
2021/12/11 04:40:08;;;;;;;261.33;243.97;;;5.40;99.90;;;;;;5080092;28;20283;-79
2021/12/11 04:45:09;;;;;;;251.27;235.37;;;5.50;99.90;;;;;;5077873;28;20261;-80
2021/12/11 04:47:44;;;;;;;242.93;227.27;;;5.50;99.90;;;;;;5060386;28;20181;-80
2021/12/11 04:50:34;;;;;;;240.83;225.80;;;5.60;99.90;;;;;;5066365;28;20205;-79
2021/12/11 04:53:02;;;;;;;232.03;217.93;;;5.60;99.90;;;;;;5084910;28;20188;-79
2021/12/11 05:06:18;;;;;;;198.50;186.87;;;5.80;99.90;;;;;;5080215;28;20265;-80
2021/12/11 05:11:53;;;;;;;186.20;175.20;;;5.70;99.90;;;;;;5080650;28;20196;-79
2021/12/11 05:14:22;;;;;;;181.03;170.30;;;5.70;99.90;;;;;;5081077;28;20178;-80
2021/12/11 05:16:47;;;;;;;172.30;162.07;;;5.70;99.90;;;;;;5100312;28;20204;-80
2021/12/11 05:19:13;;;;;;;171.83;161.37;;;5.80;99.90;;;;;;5081015;28;20273;-80
2021/12/11 05:21:40;;;;;;;165.73;155.47;;;5.80;99.90;;;;;;5067237;28;20204;-80
2021/12/11 05:24:08;;;;;;;170.33;160.10;;;5.90;99.90;;;;;;5086105;28;20186;-79
2021/12/11 05:26:36;;;;;;;169.50;159.73;;;5.90;99.90;;;;;;5068130;28;20213;-79
2021/12/11 05:29:03;;;;;;;164.50;154.23;;;6.00;99.90;;;;;;5079931;28;20221;-79
2021/12/11 05:31:29;;;;;;;163.20;153.00;;;6.10;99.90;;;;;;5079742;28;20182;-80
2021/12/11 05:33:55;;;;;;;164.17;154.23;;;6.10;99.90;;;;;;5060958;28;20206;-79
2021/12/11 05:36:21;;;;;;;160.23;149.57;;;6.20;99.90;;;;;;5049769;28;20209;-80
2021/12/11 05:38:48;;;;;;;161.50;151.83;;;6.20;99.90;;;;;;5077900;28;20194;-80
2021/12/11 05:41:18;;;;;;;160.10;150.33;;;6.30;99.90;;;;;;5062577;28;20410;-80
2021/12/11 05:43:46;;;;;;;156.83;146.83;;;6.20;99.90;;;;;;5077463;28;20228;-80
2021/12/11 05:46:13;;;;;;;157.77;148.00;;;6.30;99.90;;;;;;5078515;28;20669;-81
2021/12/11 05:48:41;;;;;;;157.23;147.30;;;6.20;99.90;;;;;;5093751;28;20217;-80
2021/12/11 05:51:13;;;;;;;157.77;148.70;;;6.30;99.90;;;;;;5076766;28;20548;-80
2021/12/11 05:53:38;;;;;;;152.10;142.93;;;6.20;99.90;;;;;;5077295;28;20188;-80
2021/12/11 05:56:11;;;;;;;148.73;139.73;;;6.20;99.90;;;;;;5061085;28;20293;-80
2021/12/11 06:01:23;;;;;;;154.13;144.97;;;6.20;99.90;;;;;;5075723;28;20224;-79
2021/12/11 06:03:49;;;;;;;151.93;143.03;;;6.20;99.90;;;;;;5094874;28;20674;-78
2021/12/11 06:06:15;;;;;;;144.37;135.73;;;6.30;99.90;;;;;;5076229;28;20197;-79
2021/12/11 06:08:41;;;;;;;140.53;132.10;;;6.30;99.90;;;;;;5066241;28;20224;-80
2021/12/11 06:11:09;;;;;;;139.33;131.10;;;6.40;99.90;;;;;;5096840;28;20241;-79
2021/12/11 06:13:35;;;;;;;154.60;145.23;;;6.40;99.90;;;;;;5078680;28;20177;-79
2021/12/11 06:16:02;;;;;;;189.10;178.30;;;6.50;99.90;;;;;;5066173;28;20204;-79
2021/12/11 06:18:29;;;;;;;305.93;288.20;;;6.50;99.90;;;;;;5079139;28;20189;-80
2021/12/11 06:20:55;;;;;;;337.07;316.47;;;6.50;99.90;;;;;;5082616;28;20174;-79
2021/12/11 06:23:22;;;;;;;385.40;360.57;;;6.50;99.90;;;;;;5080211;28;20245;-79
2021/12/11 06:25:49;;;;;;;522.60;481.53;;;6.40;99.90;;;;;;5096627;28;20186;-80
2021/12/11 06:28:15;;;;;;;527.10;485.13;;;6.40;99.90;;;;;;5075609;28;20332;-79
2021/12/11 06:30:41;;;;;;;531.17;488.27;;;6.30;99.90;;;;;;5074030;28;20221;-79
2021/12/11 06:33:08;;;;;;;525.77;482.77;;;6.30;99.90;;;;;;5072508;28;20182;-79
2021/12/11 06:36:04;;;;;;;530.30;487.43;;;6.30;99.90;;;;;;5072387;28;20209;-79
2021/12/11 06:38:33;;;;;;;536.10;492.17;;;6.20;99.90;;;;;;5075294;28;20272;-78
2021/12/11 06:40:59;;;;;;;536.90;492.50;;;6.30;99.90;;;;;;5071740;28;20189;-79
2021/12/11 06:43:25;;;;;;;547.53;503.30;;;6.30;99.90;;;;;;5076990;28;20189;-79
2021/12/11 06:45:52;;;;;;;544.13;499.73;;;6.30;99.90;;;;;;5045467;28;20193;-78
2021/12/11 06:48:18;;;;;;;549.10;504.23;;;6.30;99.90;;;;;;5079894;28;20763;-79
2021/12/11 06:50:50;;;;;;;547.17;502.57;;;6.30;99.90;;;;;;5062707;28;20995;-80
2021/12/11 06:53:26;;;;;;;550.50;505.60;;;6.30;99.90;;;;;;5071598;28;20198;-79
2021/12/11 06:55:52;;;;;;;563.40;517.87;;;6.30;99.90;;;;;;5071743;28;20712;-79
2021/12/11 06:58:18;;;;;;;545.57;500.87;;;6.30;99.90;;;;;;5051722;28;20205;-79
2021/12/11 07:00:44;;;;;;;553.10;507.93;;;6.30;99.90;;;;;;5086010;28;20564;-80
2021/12/11 07:03:10;;;;;;;558.53;513.30;;;6.20;99.90;;;;;;5067782;28;20608;-79
2021/12/11 07:05:37;;;;;;;555.67;510.27;;;6.20;99.90;;;;;;5048593;28;20276;-79
2021/12/11 07:08:05;;;;;;;557.17;511.47;;;6.20;99.90;;;;;;5070540;28;20193;-78
2021/12/11 07:10:32;;;;;;;546.83;502.13;;;6.20;99.90;;;;;;5064574;28;20217;-80
2021/12/11 07:12:58;;;;;;;568.20;523.50;;;6.20;99.90;;;;;;5052966;28;20194;-80
2021/12/11 07:15:24;;;;;;;547.97;503.63;;;6.20;99.90;;;;;;5069129;28;20259;-81
2021/12/11 07:17:50;;;;;;;566.20;521.27;;;6.20;99.90;;;;;;5055415;28;20215;-79
2021/12/11 07:20:16;;;;;;;554.83;510.43;;;6.20;99.90;;;;;;5066731;28;20218;-79
2021/12/11 07:22:43;;;;;;;562.63;518.00;;;6.40;99.90;;;;;;5038484;28;20199;-79
2021/12/11 07:25:26;;;;;;;550.80;507.10;;;6.30;99.90;;;;;;5066602;28;20276;-79
2021/12/11 07:27:53;;;;;;;544.87;501.37;;;6.40;99.90;;;;;;5067637;28;20189;-79
2021/12/11 07:30:21;;;;;;;536.87;492.93;;;6.40;99.90;;;;;;5050636;28;20306;-80
2021/12/11 07:32:46;;;;;;;535.43;492.10;;;6.50;99.90;;;;;;5067845;28;20704;-78
2021/12/11 07:35:13;;;;;;;530.73;488.23;;;6.60;99.90;;;;;;5069577;28;20209;-80
2021/12/11 07:37:39;;;;;;;524.87;483.10;;;6.60;99.90;;;;;;5051954;28;20209;-80
2021/12/11 07:40:08;;;;;;;517.33;476.10;;;6.60;99.90;;;;;;5056102;28;20197;-79
2021/12/11 07:42:36;;;;;;;516.37;474.80;;;6.60;99.90;;;;;;5055735;28;20647;-79
2021/12/11 07:45:02;;;;;;;521.60;480.90;;;6.60;99.90;;;;;;5057652;28;20250;-80
2021/12/11 07:47:28;;;;;;;525.37;484.43;;;6.60;99.90;;;;;;5070936;28;20229;-79
2021/12/11 07:49:54;;;;;;;514.60;473.90;;;6.70;99.90;;;;;;5057077;28;20244;-78
2021/12/11 07:52:19;;;;;;;532.33;490.23;;;6.70;99.90;;;;;;5073011;28;20213;-80
2021/12/11 07:54:45;;;;;;;544.37;500.10;;;6.70;99.90;;;;;;5057818;28;20205;-80
2021/12/11 07:57:11;;;;;;;547.27;502.43;;;6.60;99.90;;;;;;5058706;28;20193;-79
2021/12/11 07:59:37;;;;;;;542.77;497.63;;;6.60;99.90;;;;;;5064701;28;20197;-79
2021/12/11 08:02:04;;;;;;;545.13;500.03;;;6.50;99.90;;;;;;5053387;28;20229;-79
2021/12/11 08:04:29;;;;;;;564.17;518.70;;;6.50;99.90;;;;;;5070661;28;20205;-79
2021/12/11 08:06:55;;;;;;;563.03;517.37;;;6.50;99.90;;;;;;5068662;28;20312;-80
2021/12/11 08:09:23;;;;;;;564.60;518.37;;;6.50;99.90;;;;;;5047401;28;20275;-79
2021/12/11 08:11:49;;;;;;;567.53;521.30;;;6.50;99.90;;;;;;5066102;28;20277;-80
2021/12/11 08:14:16;;;;;;;559.03;513.43;;;6.50;99.90;;;;;;5069770;28;20185;-80
2021/12/11 08:16:46;;;;;;;579.60;533.10;;;6.50;99.90;;;;;;5072081;28;20200;-80
2021/12/11 08:19:15;;;;;;;563.13;516.27;;;6.50;99.90;;;;;;5066267;28;20206;-80
2021/12/11 08:21:42;;;;;;;559.40;512.93;;;6.50;99.90;;;;;;5069536;28;20243;-79
2021/12/11 08:24:09;;;;;;;560.60;514.00;;;6.50;99.90;;;;;;5058201;28;20189;-80
2021/12/11 08:26:36;;;;;;;567.23;519.80;;;6.60;99.90;;;;;;5054094;28;20190;-80
2021/12/11 08:29:04;;;;;;;560.07;513.27;;;6.50;99.90;;;;;;5073436;28;20548;-80
2021/12/11 08:31:30;;;;;;;557.60;511.17;;;6.50;99.90;;;;;;5068198;28;20182;-80
2021/12/11 08:33:56;;;;;;;561.77;515.73;;;6.50;99.90;;;;;;5071851;28;20203;-78
2021/12/11 08:36:23;;;;;;;551.43;505.57;;;6.50;99.90;;;;;;5073424;28;20682;-78
2021/12/11 08:38:49;;;;;;;552.87;506.33;;;6.50;99.90;;;;;;5071130;28;20261;-78
2021/12/11 08:41:20;;;;;;;554.10;507.37;;;6.50;99.90;;;;;;5070134;28;20447;-80
2021/12/11 08:43:52;;;;;;;556.17;509.70;;;6.50;99.90;;;;;;5070557;28;20189;-79
2021/12/11 08:46:27;;;;;;;553.73;507.57;;;6.50;99.90;;;;;;5074689;28;20213;-80
2021/12/11 08:48:55;;;;;;;549.87;504.50;;;6.50;99.90;;;;;;5056450;28;20213;-80
2021/12/11 08:51:28;;;;;;;547.47;502.33;;;6.60;99.90;;;;;;5072912;28;20185;-80
2021/12/11 08:53:55;;;;;;;555.13;509.50;;;6.60;99.90;;;;;;5071572;28;20746;-80
2021/12/11 08:56:22;;;;;;;554.47;509.43;;;6.70;99.90;;;;;;5059674;28;20189;-78
2021/12/11 08:58:48;;;;;;;552.73;507.43;;;6.90;99.90;;;;;;5056844;28;20224;-80
2021/12/11 09:01:36;;;;;;;553.20;508.33;;;7.00;99.90;;;;;;5070721;28;20217;-78
2021/12/11 09:04:17;;;;;;;484.07;446.03;;;6.90;99.90;;;;;;5072047;28;20793;-79
2021/12/11 09:06:56;;;;;;;477.63;440.07;;;6.90;99.90;;;;;;5071513;28;20190;-79
2021/12/11 09:09:30;;;;;;;469.20;432.67;;;7.00;99.90;;;;;;5074610;28;20209;-79
2021/12/11 09:12:07;;;;;;;469.37;433.20;;;7.00;99.90;;;;;;5072204;28;20275;-80
2021/12/11 09:14:36;;;;;;;463.17;426.77;;;7.00;99.90;;;;;;5065450;28;20178;-79
2021/12/11 09:17:15;;;;;;;453.50;418.83;;;7.10;99.90;;;;;;5069975;28;20277;-79
2021/12/11 09:19:52;;;;;;;456.97;422.20;;;7.10;99.90;;;;;;5075811;28;20205;-79
2021/12/11 09:22:35;;;;;;;450.10;415.27;;;7.20;99.90;;;;;;5081915;28;20173;-79
2021/12/11 09:25:30;;;;;;;448.07;413.10;;;7.20;99.90;;;;;;5077684;28;20244;-80
2021/12/11 09:28:02;;;;;;;446.30;412.30;;;7.20;99.90;;;;;;5078024;28;20218;-80
2021/12/11 09:30:51;;;;;;;447.07;413.80;;;7.30;99.90;;;;;;5076644;28;20674;-81
2021/12/11 09:33:26;;;;;;;437.03;404.10;;;7.20;99.90;;;;;;5089871;28;20169;-78
2021/12/11 09:36:24;;;;;;;436.90;403.70;;;7.20;99.90;;;;;;5081527;28;20177;-80
2021/12/11 09:39:05;;;;;;;435.80;402.57;;;7.10;99.90;;;;;;5077070;28;20198;-80
2021/12/11 09:41:30;;;;;;;438.20;404.93;;;7.00;99.90;;;;;;5080094;28;20193;-79
2021/12/11 09:44:15;;;;;;;434.73;401.73;;;7.00;99.90;;;;;;5077606;28;20190;-80
2021/12/11 09:46:50;;;;;;;435.47;402.97;;;7.00;99.90;;;;;;5070207;28;20187;-79
2021/12/11 09:49:26;;;;;;;431.43;398.60;;;7.00;99.90;;;;;;5076219;28;20217;-80
2021/12/11 09:52:01;;;;;;;426.57;394.30;;;7.00;99.90;;;;;;5073227;28;20290;-80
2021/12/11 09:54:29;;;;;;;430.43;397.70;;;7.10;99.90;;;;;;5094729;28;20181;-80
2021/12/11 09:57:00;;;;;;;434.13;402.03;;;7.00;99.90;;;;;;5062267;28;20186;-79
2021/12/11 09:59:28;;;;;;;424.27;392.80;;;7.00;99.90;;;;;;5080412;28;20205;-80
2021/12/11 10:01:59;;;;;;;420.87;389.63;;;7.00;99.90;;;;;;5060154;28;20323;-80
2021/12/11 10:04:42;;;;;;;419.10;388.00;;;7.00;99.90;;;;;;5074424;28;20255;-81
2021/12/11 10:07:25;;;;;;;424.97;393.90;;;7.00;99.90;;;;;;5075354;28;20219;-81
2021/12/11 10:09:56;;;;;;;409.53;379.00;;;7.00;99.90;;;;;;5074708;28;20303;-80
2021/12/11 10:12:26;;;;;;;406.20;376.80;;;7.10;99.90;;;;;;5079959;28;20258;-80
2021/12/11 10:14:56;;;;;;;404.00;374.93;;;7.10;99.90;;;;;;5079188;28;20170;-80
2021/12/11 10:17:37;;;;;;;404.27;376.10;;;7.30;99.90;;;;;;5078006;28;20672;-81
2021/12/11 10:20:18;;;;;;;386.83;359.33;;;7.50;99.90;;;;;;5085128;28;20197;-79
2021/12/11 10:22:44;;;;;;;379.17;352.13;;;7.70;99.90;;;;;;5072530;28;20189;-80
2021/12/11 10:25:17;;;;;;;378.17;352.17;;;7.90;99.90;;;;;;5071543;28;20182;-80
2021/12/11 10:27:43;;;;;;;368.30;342.53;;;8.10;99.90;;;;;;5084221;28;20198;-81
2021/12/11 10:30:14;;;;;;;366.43;341.90;;;8.00;99.90;;;;;;5042551;28;20220;-79
2021/12/11 10:32:40;;;;;;;360.90;337.33;;;8.00;99.90;;;;;;5071267;28;20264;-81
2021/12/11 10:35:19;;;;;;;353.70;330.80;;;7.90;99.90;;;;;;5074559;28;20235;-81
2021/12/11 10:37:46;;;;;;;349.83;326.93;;;7.80;99.90;;;;;;5074762;28;20194;-81
2021/12/11 10:40:28;;;;;;;348.23;325.93;;;7.70;99.90;;;;;;5058364;28;20297;-81
2021/12/11 10:43:00;;;;;;;341.37;318.93;;;7.70;99.90;;;;;;5077202;28;20189;-79
2021/12/11 10:45:27;;;;;;;339.37;317.20;;;7.60;99.90;;;;;;5072937;28;20189;-80
2021/12/11 10:47:57;;;;;;;335.20;313.47;;;7.60;99.90;;;;;;5058137;28;20212;-81
2021/12/11 10:50:29;;;;;;;334.60;312.50;;;7.60;99.90;;;;;;5073770;28;20299;-81
2021/12/11 10:52:56;;;;;;;328.77;308.00;;;7.60;99.90;;;;;;5077060;28;20326;-79
2021/12/11 10:55:28;;;;;;;324.23;303.63;;;7.60;99.90;;;;;;5062807;28;20544;-81
2021/12/11 10:57:57;;;;;;;319.97;300.00;;;7.60;99.90;;;;;;5075171;28;20173;-80
2021/12/11 11:00:30;;;;;;;321.03;299.83;;;7.70;99.90;;;;;;5082804;28;20623;-80
2021/12/11 11:02:57;;;;;;;314.77;294.17;;;7.80;99.90;;;;;;5092838;28;20264;-80
2021/12/11 11:05:26;;;;;;;316.40;296.23;;;7.70;99.90;;;;;;5061682;28;20197;-80
2021/12/11 11:07:52;;;;;;;308.60;288.43;;;7.80;99.90;;;;;;5077051;28;20196;-80
2021/12/11 11:10:27;;;;;;;303.60;283.97;;;7.80;99.90;;;;;;5059451;28;20221;-80
2021/12/11 11:12:55;;;;;;;293.13;274.73;;;7.90;99.90;;;;;;5076008;28;20185;-81
2021/12/11 11:15:23;;;;;;;289.67;271.90;;;8.00;99.90;;;;;;5062295;28;20173;-80
2021/12/11 11:17:50;;;;;;;280.73;263.17;;;8.10;99.90;;;;;;5057708;28;20212;-79
2021/12/11 11:20:25;;;;;;;284.37;266.03;;;8.10;99.90;;;;;;5062014;28;20228;-80
2021/12/11 11:22:51;;;;;;;281.03;264.27;;;8.10;99.90;;;;;;5074488;28;20189;-81
2021/12/11 11:25:24;;;;;;;280.17;263.23;;;8.00;99.90;;;;;;5077180;28;20267;-81
2021/12/11 11:27:57;;;;;;;270.77;254.03;;;8.00;99.90;;;;;;5080394;28;20220;-79
2021/12/11 11:30:28;;;;;;;272.13;255.37;;;8.00;99.90;;;;;;5070018;28;20221;-79
2021/12/11 11:32:55;;;;;;;262.17;245.97;;;7.90;99.90;;;;;;5070455;28;20201;-80
2021/12/11 11:35:24;;;;;;;258.87;243.67;;;8.00;99.90;;;;;;5071170;28;20558;-80
2021/12/11 11:37:56;;;;;;;257.77;242.63;;;8.10;99.90;;;;;;5075929;28;20208;-79
2021/12/11 11:40:26;;;;;;;247.23;233.03;;;8.10;99.90;;;;;;5064131;28;20251;-79
2021/12/11 11:42:53;;;;;;;238.07;223.67;;;8.20;99.90;;;;;;5071925;28;20190;-79
2021/12/11 11:45:19;;;;;;;230.93;217.83;;;8.30;99.90;;;;;;5061587;28;20222;-79
2021/12/11 11:47:46;;;;;;;225.67;212.97;;;8.40;99.90;;;;;;5062331;28;20232;-80
2021/12/11 11:50:15;;;;;;;224.50;212.40;;;8.40;99.90;;;;;;5046057;28;20237;-79
2021/12/11 11:52:41;;;;;;;218.60;206.73;;;8.40;99.90;;;;;;5065723;28;20654;-80
2021/12/11 11:55:12;;;;;;;191.97;181.40;;;8.30;99.90;;;;;;5059258;28;20178;-79
2021/12/11 11:57:42;;;;;;;185.20;174.53;;;8.30;99.90;;;;;;5069426;28;20181;-80
2021/12/11 12:00:16;;;;;;;180.47;170.43;;;8.30;99.90;;;;;;5067728;28;20189;-79
2021/12/11 12:02:42;;;;;;;167.17;157.33;;;8.20;99.90;;;;;;5067495;28;20315;-79
2021/12/11 12:05:08;;;;;;;159.87;150.77;;;8.20;99.90;;;;;;5064830;28;20292;-80
2021/12/11 12:07:34;;;;;;;155.27;146.83;;;8.10;99.90;;;;;;5062623;28;20190;-82
2021/12/11 12:10:09;;;;;;;145.23;136.93;;;8.00;99.90;;;;;;5062047;28;20210;-80
2021/12/11 12:12:35;;;;;;;146.90;138.27;;;8.00;99.90;;;;;;5072838;28;20753;-79
2021/12/11 12:15:04;;;;;;;138.90;130.97;;;8.00;99.90;;;;;;5058307;28;20208;-79
2021/12/11 12:17:31;;;;;;;138.60;130.27;;;7.90;99.90;;;;;;5079360;28;20245;-80
2021/12/11 12:19:59;;;;;;;130.97;123.50;;;7.90;99.90;;;;;;5082371;28;20197;-80
2021/12/11 12:22:26;;;;;;;125.03;117.57;;;7.90;99.90;;;;;;5081374;28;20178;-79
2021/12/11 12:24:55;;;;;;;122.60;115.27;;;7.80;99.90;;;;;;5068949;28;20166;-79
2021/12/11 12:27:24;;;;;;;128.20;120.40;;;7.80;99.90;;;;;;5096046;28;20185;-78
2021/12/11 12:29:50;;;;;;;120.73;113.67;;;7.80;99.90;;;;;;5079263;28;20326;-80
2021/12/11 12:32:29;;;;;;;121.97;115.10;;;7.70;99.90;;;;;;5073097;28;20190;-80
2021/12/11 12:35:00;;;;;;;123.70;116.20;;;7.70;99.90;;;;;;5070916;28;20224;-79
2021/12/11 12:37:27;;;;;;;116.97;109.87;;;7.70;99.90;;;;;;5067316;28;20217;-79
2021/12/11 12:39:56;;;;;;;113.23;106.90;;;7.80;99.90;;;;;;5068395;28;20193;-79
2021/12/11 12:42:33;;;;;;;111.27;104.60;;;7.90;99.90;;;;;;5066071;28;20189;-79
2021/12/11 12:45:13;;;;;;;111.57;105.17;;;8.00;99.90;;;;;;5069902;28;20218;-79
2021/12/11 12:47:44;;;;;;;105.03;98.63;;;8.00;99.90;;;;;;5070024;28;20219;-79
2021/12/11 12:50:18;;;;;;;102.63;96.53;;;8.20;99.90;;;;;;5069159;28;20201;-80
2021/12/11 12:52:46;;;;;;;104.53;97.90;;;8.30;99.90;;;;;;5067347;28;20880;-79
2021/12/11 12:55:25;;;;;;;96.80;91.40;;;8.40;99.90;;;;;;5072699;28;20235;-80